CLT TRACON Summary / KCLT TAF
CLT TRACON Summary:
High pressure will remain in control of the airspace tonight. Showers and thunderstorms will continue to drift to the south and east at 08-12kts through 03z. Expect VFR conditions under a FEW/SCT060-080 clouds, with MVFR/IFR conditions possible after 06z in SCT-BKN010-025 clouds. Surface winds will be variable at less than 7kts thru 03z, then frequently calm after. Flight Hazards in the TRACON airspace outside of convection: None expected.

Updated: 7/27/2015 08:30 PM
CLT Terminal Aerodrome Forecast:

FTUS42 KGSP 280529
TAFCLT
TAF
KCLT 280529Z 2806/2906 13006KT P6SM SCT060 BKN100
     FM280800 15004KT P6SM BKN045
      TEMPO 2812/2815 SCT015 BKN030
     FM281500 17003KT P6SM BKN030
     FM281700 17004KT P6SM BKN040 PROB30 2819/2823 4SM TSRA BKN030CB
     FM290100 14005KT P6SM BKN080=
CLT TRACON Area Remark:
SCATTERED TS POSSIBLE SW/S/SE/E THRU 03Z.
Convective Gate Forecast / Collaborative Convective Forecast Product / Vertical Wind Profile
Convective Gate Forecast
-->
AIRMETs & SIGMETS/ Southeast Radar loop / Satellite Image (click on image to enlarge)

Southeast Radar Loop

 



USA.gov is the U.S. government's official web portal to all federal, state and local government web resources and services.